Time;durP1;ratioP1;P1;durP2;ratioP2;P2;SDS_P1;SDS_P2;PMS_P1;PMS_P2;Temp;Humidity;BMP_temperature;BMP_pressure;BME280_temperature;BME280_humidity;BME280_pressure;Samples;Min_cycle;Max_cycle;Signal;HPM_P1;HPM_P2
2024/01/15 00:02:26;;;;;;;13.50;1.65;;;;;;;-0.74;100.00;99329.66;7359347;19;20277;-37
2024/01/15 00:04:55;;;;;;;5.00;1.05;;;;;;;-0.77;100.00;99338.72;7333190;19;20201;-37
2024/01/15 00:07:28;;;;;;;23.15;2.35;;;;;;;-0.66;100.00;99329.28;7358000;19;20257;-36
2024/01/15 00:09:57;;;;;;;12.68;2.10;;;;;;;-0.65;100.00;99334.44;7335750;19;20212;-36
2024/01/15 00:12:27;;;;;;;2.05;1.02;;;;;;;-0.68;100.00;99345.25;7357401;19;20577;-37
2024/01/15 00:14:57;;;;;;;5.70;2.25;;;;;;;-0.61;100.00;99353.25;7334361;19;20222;-36
2024/01/15 00:17:26;;;;;;;7.63;2.05;;;;;;;-0.59;100.00;99371.94;7355413;19;20251;-36
2024/01/15 00:19:56;;;;;;;9.25;1.45;;;;;;;-0.56;100.00;99374.69;7336152;19;20203;-36
2024/01/15 00:22:29;;;;;;;13.13;1.70;;;;;;;-0.53;100.00;99381.63;7358203;19;20198;-36
2024/01/15 00:24:58;;;;;;;8.15;2.38;;;;;;;-0.50;100.00;99357.34;7335317;19;20213;-37
2024/01/15 00:27:28;;;;;;;5.32;0.80;;;;;;;-0.56;100.00;99359.50;7358736;19;20211;-36
2024/01/15 00:29:58;;;;;;;12.85;3.20;;;;;;;-0.52;100.00;99348.75;7336475;19;20213;-36
2024/01/15 00:32:28;;;;;;;5.25;0.93;;;;;;;-0.53;100.00;99341.94;7357548;19;20190;-38
2024/01/15 00:34:57;;;;;;;3.88;1.20;;;;;;;-0.53;100.00;99336.00;7335138;19;20199;-36
2024/01/15 00:37:29;;;;;;;4.28;1.30;;;;;;;-0.59;100.00;99342.44;7357445;19;20203;-36
2024/01/15 00:39:59;;;;;;;8.18;2.47;;;;;;;-0.56;100.00;99326.56;7335966;19;20273;-37
2024/01/15 00:42:29;;;;;;;5.05;1.10;;;;;;;-0.59;100.00;99306.97;7357825;19;20215;-37
2024/01/15 00:44:58;;;;;;;3.38;1.25;;;;;;;-0.57;100.00;99299.44;7335185;19;20277;-39
2024/01/15 00:47:28;;;;;;;14.20;2.40;;;;;;;-0.59;100.00;99301.91;7356549;19;20197;-37
2024/01/15 00:49:58;;;;;;;2.65;0.70;;;;;;;-0.57;100.00;99300.31;7334702;19;20221;-36
2024/01/15 00:52:30;;;;;;;7.05;1.85;;;;;;;-0.47;100.00;99270.50;7357475;19;20234;-38
2024/01/15 00:54:59;;;;;;;2.85;0.73;;;;;;;-0.39;100.00;99274.38;7335231;19;20264;-36
2024/01/15 00:57:29;;;;;;;16.08;2.60;;;;;;;-0.39;100.00;99278.56;7357966;19;20200;-38
2024/01/15 00:59:59;;;;;;;4.93;1.35;;;;;;;-0.38;100.00;99249.91;7335424;19;20209;-37
2024/01/15 01:02:32;;;;;;;4.35;1.73;;;;;;;-0.39;100.00;99243.97;7357745;19;20606;-37
2024/01/15 01:05:03;;;;;;;3.05;0.80;;;;;;;-0.46;100.00;99235.09;7334990;19;20276;-37
2024/01/15 01:07:35;;;;;;;17.70;2.50;;;;;;;-0.46;100.00;99234.25;7356064;19;20196;-37
2024/01/15 01:10:06;;;;;;;6.25;1.30;;;;;;;-0.47;100.00;99230.81;7335165;19;20270;-37
2024/01/15 01:12:36;;;;;;;5.35;0.85;;;;;;;-0.46;100.00;99217.34;7357124;19;20194;-37
2024/01/15 01:15:06;;;;;;;4.53;1.40;;;;;;;-0.43;100.00;99192.22;7333894;19;20205;-37
2024/01/15 01:17:36;;;;;;;3.78;0.85;;;;;;;-0.45;100.00;99191.22;7354297;19;20713;-37
2024/01/15 01:20:09;;;;;;;11.82;1.88;;;;;;;-0.39;100.00;99189.84;7355430;19;20200;-37
2024/01/15 01:22:42;;;;;;;7.75;2.28;;;;;;;-0.35;100.00;99179.13;7333993;19;20626;-37
2024/01/15 01:25:11;;;;;;;6.88;1.45;;;;;;;-0.42;100.00;99163.56;7354580;19;20195;-37
2024/01/15 01:27:41;;;;;;;13.38;2.10;;;;;;;-0.42;100.00;99259.84;7330938;19;20190;-36
2024/01/15 01:30:11;;;;;;;11.32;1.95;;;;;;;-0.45;100.00;99181.09;7355130;19;20194;-37
2024/01/15 01:32:41;;;;;;;10.98;1.83;;;;;;;-0.46;100.00;99207.22;7332735;19;20194;-37
2024/01/15 01:35:11;;;;;;;35.58;9.02;;;;;;;-0.50;100.00;99185.03;7352588;19;20198;-38
2024/01/15 01:37:43;;;;;;;5.72;1.10;;;;;;;-0.55;100.00;99161.91;7330490;19;20198;-38
2024/01/15 01:40:13;;;;;;;9.90;2.40;;;;;;;-0.49;100.00;99135.22;7351872;19;20201;-37
2024/01/15 01:42:43;;;;;;;3.38;1.40;;;;;;;-0.43;100.00;99145.72;7329734;19;20198;-38
2024/01/15 01:45:13;;;;;;;4.93;0.80;;;;;;;-0.39;100.00;99146.75;7351965;19;20410;-37
2024/01/15 01:47:43;;;;;;;4.80;1.20;;;;;;;-0.33;100.00;99163.22;7330499;19;20194;-38
2024/01/15 01:50:13;;;;;;;13.68;3.60;;;;;;;-0.30;100.00;99167.59;7352094;19;20258;-38
2024/01/15 01:52:46;;;;;;;11.88;2.30;;;;;;;-0.25;100.00;99175.47;7330950;19;20211;-37
2024/01/15 01:55:15;;;;;;;8.95;1.80;;;;;;;-0.24;100.00;99183.19;7351641;19;20198;-38
2024/01/15 01:57:45;;;;;;;10.65;3.03;;;;;;;-0.22;100.00;99194.28;7330701;19;20773;-37
2024/01/15 02:00:16;;;;;;;15.80;3.20;;;;;;;-0.22;100.00;99208.59;7352541;19;20198;-37
2024/01/15 02:02:46;;;;;;;4.07;1.58;;;;;;;-0.21;100.00;99223.91;7331277;19;20251;-37
2024/01/15 02:05:16;;;;;;;4.28;1.30;;;;;;;-0.17;100.00;99232.59;7347236;19;20198;-37
2024/01/15 02:07:49;;;;;;;4.22;1.17;;;;;;;-0.23;100.00;99240.72;7330257;19;20229;-37
2024/01/15 02:10:19;;;;;;;17.15;1.55;;;;;;;-0.21;100.00;99244.19;7352298;19;20198;-37
2024/01/15 02:12:48;;;;;;;9.52;2.67;;;;;;;-0.17;100.00;99233.47;7331183;19;20203;-37
2024/01/15 02:15:18;;;;;;;3.45;0.82;;;;;;;-0.15;100.00;99247.09;7352360;19;20274;-38
2024/01/15 02:18:01;;;;;;;9.98;1.30;;;;;;;-0.15;100.00;99244.56;7330846;19;20644;-37
2024/01/15 02:20:31;;;;;;;2.35;1.25;;;;;;;-0.20;100.00;99240.88;7353388;19;20281;-37
2024/01/15 02:23:12;;;;;;;10.15;1.10;;;;;;;-0.17;100.00;99242.72;7331200;19;20282;-37
2024/01/15 02:25:44;;;;;;;14.40;2.55;;;;;;;-0.17;100.00;99240.19;7330467;19;20576;-37
2024/01/15 02:28:15;;;;;;;7.95;1.48;;;;;;;-0.17;100.00;99236.00;7351458;19;20227;-38
2024/01/15 02:30:46;;;;;;;8.52;1.95;;;;;;;-0.22;100.00;99227.25;7329702;19;20190;-37
2024/01/15 02:33:16;;;;;;;1.83;1.05;;;;;;;-0.26;100.00;99219.38;7353071;19;20210;-38
2024/01/15 02:35:46;;;;;;;4.40;0.80;;;;;;;-0.30;100.00;99218.31;7330956;19;20196;-37
2024/01/15 02:38:18;;;;;;;10.02;1.90;;;;;;;-0.22;100.00;99206.97;7352763;19;20266;-37
2024/01/15 02:40:48;;;;;;;12.07;2.35;;;;;;;-0.21;100.00;99218.84;7338016;19;20230;-37
2024/01/15 02:43:19;;;;;;;5.50;1.30;;;;;;;-0.18;100.00;99213.97;7358274;19;20616;-37
2024/01/15 02:45:49;;;;;;;1.83;0.80;;;;;;;-0.16;100.00;99194.66;7338451;19;20202;-37
2024/01/15 02:48:18;;;;;;;8.10;2.22;;;;;;;-0.11;100.00;99194.06;7358629;19;20227;-36
2024/01/15 02:50:48;;;;;;;9.68;2.95;;;;;;;-0.11;100.00;99183.91;7337397;19;20229;-37
2024/01/15 02:53:20;;;;;;;7.18;1.40;;;;;;;-0.15;100.00;99190.47;7357921;19;20206;-37
2024/01/15 02:55:50;;;;;;;17.92;2.72;;;;;;;-0.15;100.00;99200.63;7336401;19;20201;-37
2024/01/15 02:58:20;;;;;;;3.70;0.80;;;;;;;-0.19;100.00;99207.16;7358326;19;20209;-37
2024/01/15 03:00:49;;;;;;;20.05;3.30;;;;;;;-0.21;100.00;99211.25;7337063;19;20197;-37
2024/01/15 03:03:19;;;;;;;30.55;2.45;;;;;;;-0.26;100.00;99215.16;7358205;19;20222;-37
2024/01/15 03:05:49;;;;;;;6.95;1.52;;;;;;;-0.23;100.00;99202.69;7336922;19;20786;-37
2024/01/15 03:08:22;;;;;;;17.73;2.13;;;;;;;-0.20;100.00;99207.06;7355787;19;20205;-37
2024/01/15 03:10:52;;;;;;;20.27;3.63;;;;;;;-0.14;100.00;99199.81;7336923;19;20206;-37
2024/01/15 03:13:22;;;;;;;7.30;1.70;;;;;;;-0.10;100.00;99195.81;7358671;19;20197;-36
2024/01/15 03:15:51;;;;;;;7.80;2.30;;;;;;;-0.09;100.00;99192.47;7336350;19;20190;-37
2024/01/15 03:18:21;;;;;;;17.23;3.22;;;;;;;-0.08;100.00;99199.28;7357919;19;20190;-38
2024/01/15 03:20:51;;;;;;;11.93;1.98;;;;;;;-0.10;100.00;99195.81;7337315;19;20190;-37
2024/01/15 03:23:23;;;;;;;14.02;2.45;;;;;;;-0.05;100.00;99184.28;7357840;19;20326;-37
2024/01/15 03:25:53;;;;;;;9.80;2.28;;;;;;;-0.04;100.00;99196.16;7337117;19;20231;-36
2024/01/15 03:28:22;;;;;;;16.05;1.85;;;;;;;-0.05;100.00;99194.44;7357343;19;20200;-38
2024/01/15 03:30:52;;;;;;;18.00;2.60;;;;;;;0.02;100.00;99200.72;7336591;19;20197;-37
2024/01/15 03:33:22;;;;;;;22.35;4.53;;;;;;;-0.04;100.00;99191.94;7356476;19;20682;-37
2024/01/15 03:35:52;;;;;;;17.63;2.30;;;;;;;0.02;100.00;99188.03;7334982;19;20211;-37
2024/01/15 03:38:25;;;;;;;12.93;3.45;;;;;;;-0.01;100.00;99176.03;7357353;19;20218;-37
2024/01/15 03:40:55;;;;;;;31.70;4.25;;;;;;;0.06;100.00;99178.16;7337139;19;20211;-37
2024/01/15 03:43:24;;;;;;;22.73;2.80;;;;;;;0.10;100.00;99166.56;7357479;19;20194;-37
2024/01/15 03:45:54;;;;;;;15.35;2.33;;;;;;;0.15;100.00;99159.19;7335978;19;20262;-37
2024/01/15 03:48:23;;;;;;;12.25;2.95;;;;;;;0.05;100.00;99151.03;7356892;19;20218;-37
2024/01/15 03:50:53;;;;;;;22.80;3.25;;;;;;;0.05;100.00;99142.56;7333655;19;20222;-37
2024/01/15 03:53:25;;;;;;;6.40;1.27;;;;;;;0.03;100.00;99131.44;7356625;19;20216;-37
2024/01/15 03:55:55;;;;;;;12.32;2.17;;;;;;;0.05;100.00;99130.75;7335533;19;20261;-37
2024/01/15 03:58:25;;;;;;;26.75;4.15;;;;;;;0.10;100.00;99125.97;7357003;19;20271;-36
2024/01/15 04:00:54;;;;;;;17.48;1.90;;;;;;;0.06;100.00;99119.81;7335429;19;20215;-37
2024/01/15 04:03:24;;;;;;;15.73;2.47;;;;;;;0.08;100.00;99100.50;7355923;19;20201;-37
2024/01/15 04:05:54;;;;;;;10.47;2.23;;;;;;;0.06;100.00;99084.31;7335330;19;20670;-36
2024/01/15 04:08:26;;;;;;;8.90;1.67;;;;;;;0.07;100.00;99075.06;7355505;19;20424;-37
2024/01/15 04:10:55;;;;;;;14.60;1.45;;;;;;;0.15;100.00;99065.34;7335948;19;20253;-37
2024/01/15 04:13:25;;;;;;;8.88;2.47;;;;;;;0.19;100.00;99041.88;7355844;19;20209;-37
2024/01/15 04:15:55;;;;;;;18.55;4.35;;;;;;;0.24;100.00;99010.91;7334609;19;20550;-36
2024/01/15 04:18:25;;;;;;;13.23;2.28;;;;;;;0.25;100.00;98987.28;7355313;19;20198;-37
2024/01/15 04:20:55;;;;;;;15.00;2.22;;;;;;;0.24;100.00;98980.47;7335155;19;20850;-37
2024/01/15 04:23:27;;;;;;;17.00;3.05;;;;;;;0.26;100.00;98948.44;7355652;19;20198;-37
2024/01/15 04:25:57;;;;;;;14.55;2.67;;;;;;;0.31;100.00;98923.31;7334993;19;20214;-37
2024/01/15 04:28:26;;;;;;;20.25;2.63;;;;;;;0.35;100.00;98897.31;7356138;19;20209;-37
2024/01/15 04:30:56;;;;;;;10.07;2.38;;;;;;;0.37;100.00;98870.34;7334445;19;20196;-37
2024/01/15 04:33:26;;;;;;;11.80;3.00;;;;;;;0.40;100.00;98850.22;7355461;19;20210;-37
2024/01/15 04:35:55;;;;;;;11.80;2.05;;;;;;;0.32;100.00;98828.66;7333767;19;20194;-37
2024/01/15 04:38:28;;;;;;;12.23;1.98;;;;;;;0.39;100.00;98812.06;7349901;19;20205;-39
2024/01/15 04:40:57;;;;;;;11.48;1.95;;;;;;;0.38;100.00;98790.91;7328625;19;20213;-37
2024/01/15 04:43:27;;;;;;;15.25;2.28;;;;;;;0.38;100.00;98775.69;7349010;19;20206;-37
2024/01/15 04:45:56;;;;;;;27.58;3.05;;;;;;;0.38;100.00;98763.00;7328064;19;20204;-38
2024/01/15 04:48:26;;;;;;;4.45;1.40;;;;;;;0.42;100.00;98753.88;7348767;19;20202;-38
2024/01/15 04:50:56;;;;;;;10.68;2.60;;;;;;;0.43;100.00;98748.00;7327952;19;20208;-37
2024/01/15 04:53:28;;;;;;;12.75;2.50;;;;;;;0.44;100.00;98744.66;7348435;19;20202;-37
2024/01/15 04:55:57;;;;;;;31.52;2.95;;;;;;;0.49;100.00;98733.09;7327786;19;20188;-38
2024/01/15 04:58:27;;;;;;;33.97;3.22;;;;;;;0.50;100.00;98723.78;7348396;19;20687;-38
2024/01/15 05:00:57;;;;;;;21.27;3.90;;;;;;;0.58;100.00;98706.41;7327810;19;20224;-37
2024/01/15 05:03:26;;;;;;;14.60;2.97;;;;;;;0.54;100.00;98695.25;7348620;19;20282;-37
2024/01/15 05:05:56;;;;;;;18.13;2.78;;;;;;;0.61;100.00;98688.81;7327611;19;20593;-39
2024/01/15 05:08:29;;;;;;;12.50;3.30;;;;;;;0.62;100.00;98680.38;7346783;19;20591;-38
2024/01/15 05:10:58;;;;;;;30.25;4.78;;;;;;;0.63;100.00;98675.41;7327651;19;21096;-38
2024/01/15 05:13:28;;;;;;;13.40;3.40;;;;;;;0.59;100.00;98667.53;7347938;19;20206;-37
2024/01/15 05:15:57;;;;;;;18.33;2.45;;;;;;;0.61;100.00;98661.75;7326540;19;20203;-38
2024/01/15 05:18:27;;;;;;;29.63;3.55;;;;;;;0.64;100.00;98654.28;7348187;19;20222;-37
2024/01/15 05:20:57;;;;;;;54.30;5.23;;;;;;;0.65;100.00;98648.41;7326743;19;20213;-37
2024/01/15 05:23:29;;;;;;;20.83;2.67;;;;;;;0.66;100.00;98642.53;7347512;19;20463;-37
2024/01/15 05:25:59;;;;;;;13.73;2.13;;;;;;;0.66;100.00;98634.03;7326084;19;20410;-36
2024/01/15 05:28:29;;;;;;;18.08;3.20;;;;;;;0.68;100.00;98629.91;7347647;19;20485;-38
2024/01/15 05:30:59;;;;;;;14.20;2.93;;;;;;;0.66;100.00;98618.78;7326352;19;20206;-37
2024/01/15 05:33:28;;;;;;;24.38;3.53;;;;;;;0.74;100.00;98616.63;7347276;19;20434;-39
2024/01/15 05:35:58;;;;;;;18.30;3.05;;;;;;;0.74;100.00;98614.97;7326885;19;20191;-37
2024/01/15 05:38:31;;;;;;;17.27;2.00;;;;;;;0.76;100.00;98625.16;7347213;19;20194;-37
2024/01/15 05:41:00;;;;;;;17.40;2.78;;;;;;;0.77;100.00;98611.72;7326273;19;20395;-39
2024/01/15 05:43:30;;;;;;;16.63;2.47;;;;;;;0.76;100.00;98604.84;7346922;19;20248;-39
2024/01/15 05:45:59;;;;;;;20.50;4.05;;;;;;;0.82;100.00;98597.53;7326091;19;20194;-38
2024/01/15 05:48:29;;;;;;;23.58;3.28;;;;;;;0.79;100.00;98589.78;7346794;19;20202;-37
2024/01/15 05:50:59;;;;;;;15.13;2.20;;;;;;;0.79;100.00;98597.41;7325687;19;20209;-37
2024/01/15 05:53:31;;;;;;;23.47;4.93;;;;;;;0.78;100.00;98593.13;7346799;19;20445;-38
2024/01/15 05:56:01;;;;;;;29.35;4.47;;;;;;;0.81;100.00;98593.25;7325650;19;20458;-38
2024/01/15 05:58:30;;;;;;;19.55;3.13;;;;;;;0.84;100.00;98598.50;7345485;19;20269;-38
2024/01/15 06:01:00;;;;;;;9.40;2.03;;;;;;;0.83;100.00;98590.78;7325438;19;20738;-38
2024/01/15 06:03:30;;;;;;;23.35;3.60;;;;;;;0.85;100.00;98610.38;7346409;19;20431;-38
2024/01/15 06:06:00;;;;;;;29.50;5.28;;;;;;;0.80;100.00;98617.78;7325548;19;20194;-38
2024/01/15 06:08:32;;;;;;;26.35;2.95;;;;;;;0.66;100.00;98628.94;7344294;19;20633;-38
2024/01/15 06:11:02;;;;;;;9.95;1.75;;;;;;;0.62;100.00;98639.78;7325532;19;20201;-37
2024/01/15 06:13:32;;;;;;;22.63;3.38;;;;;;;0.66;100.00;98647.59;7346088;19;20205;-38
2024/01/15 06:16:02;;;;;;;18.00;4.28;;;;;;;0.59;100.00;98640.50;7332374;19;20217;-39
2024/01/15 06:18:32;;;;;;;17.90;2.30;;;;;;;0.61;100.00;98625.34;7352275;19;20206;-37
2024/01/15 06:21:02;;;;;;;21.38;2.55;;;;;;;0.72;100.00;98618.22;7332231;19;20194;-38
2024/01/15 06:23:34;;;;;;;16.65;3.85;;;;;;;0.69;100.00;98610.47;7352860;19;20589;-38
2024/01/15 06:26:04;;;;;;;17.67;2.80;;;;;;;0.70;100.00;98590.22;7331844;19;20198;-37
2024/01/15 06:28:33;;;;;;;12.38;1.90;;;;;;;0.71;100.00;98591.13;7352536;19;20198;-38
2024/01/15 06:31:03;;;;;;;15.68;1.70;;;;;;;0.73;100.00;98599.66;7332092;19;20583;-39
2024/01/15 06:33:33;;;;;;;4.97;1.30;;;;;;;0.73;100.00;98594.59;7353272;19;20205;-38
2024/01/15 06:36:02;;;;;;;4.80;1.35;;;;;;;0.79;100.00;98593.22;7332035;19;20394;-38
2024/01/15 06:38:35;;;;;;;9.02;1.50;;;;;;;0.73;100.00;98600.53;7351548;19;20265;-38
2024/01/15 06:41:05;;;;;;;10.30;2.83;;;;;;;0.75;100.00;98605.66;7325345;19;20563;-38
2024/01/15 06:43:34;;;;;;;6.30;1.20;;;;;;;0.72;100.00;98613.16;7349760;19;20467;-37
2024/01/15 06:46:04;;;;;;;9.82;2.33;;;;;;;0.75;100.00;98608.19;7330951;19;20194;-38
2024/01/15 06:48:37;;;;;;;10.10;2.00;;;;;;;0.76;100.00;98620.09;7350581;19;20198;-37
2024/01/15 06:51:07;;;;;;;22.25;2.67;;;;;;;0.78;100.00;98616.84;7352668;19;21303;-37
2024/01/15 06:53:39;;;;;;;2.83;0.95;;;;;;;0.80;100.00;98616.91;7352399;19;20198;-37
2024/01/15 06:56:09;;;;;;;9.00;1.40;;;;;;;0.82;100.00;98624.59;7331119;19;20197;-37
2024/01/15 06:58:38;;;;;;;10.00;3.10;;;;;;;0.86;100.00;98624.81;7332968;19;20214;-38
2024/01/15 07:01:08;;;;;;;11.80;2.47;;;;;;;0.86;100.00;98634.13;7349834;19;20403;-38
2024/01/15 07:03:38;;;;;;;4.82;1.30;;;;;;;0.83;100.00;98628.88;7337158;19;20455;-38
2024/01/15 07:06:08;;;;;;;14.03;2.10;;;;;;;0.82;100.00;98635.63;7351688;19;20202;-37
2024/01/15 07:08:40;;;;;;;6.80;0.97;;;;;;;0.75;100.00;98648.81;7339774;19;20958;-37
2024/01/15 07:11:10;;;;;;;4.00;1.48;;;;;;;0.73;100.00;98652.97;7351014;19;20871;-38
2024/01/15 07:13:40;;;;;;;5.70;1.13;;;;;;;0.74;100.00;98667.41;7329336;19;20304;-37
2024/01/15 07:16:10;;;;;;;10.05;0.90;;;;;;;0.68;100.00;98673.06;7351223;19;20206;-37
2024/01/15 07:18:39;;;;;;;10.02;2.35;;;;;;;0.72;100.00;98674.09;7329437;19;20682;-38
2024/01/15 07:21:09;;;;;;;14.70;1.63;;;;;;;0.66;100.00;98662.84;7352445;19;20214;-37
2024/01/15 07:23:42;;;;;;;5.53;1.25;;;;;;;0.68;100.00;98673.06;7329419;19;20206;-38
2024/01/15 07:26:11;;;;;;;4.35;1.58;;;;;;;0.74;100.00;98677.56;7347638;19;20262;-37
2024/01/15 07:28:41;;;;;;;1.40;0.40;;;;;;;0.68;100.00;98675.59;7328844;19;20657;-38
2024/01/15 07:31:11;;;;;;;6.53;1.23;;;;;;;0.75;100.00;98679.28;7348987;19;20490;-38
2024/01/15 07:33:41;;;;;;;8.20;1.80;;;;;;;0.72;100.00;98694.41;7328933;19;20464;-39
2024/01/15 07:36:11;;;;;;;11.33;1.07;;;;;;;0.72;100.00;98685.09;7351371;19;20198;-37
2024/01/15 07:38:43;;;;;;;8.90;1.52;;;;;;;0.70;100.00;98688.34;7327636;19;20456;-38
2024/01/15 07:41:13;;;;;;;18.23;2.97;;;;;;;0.73;100.00;98691.94;7350367;19;20198;-40
2024/01/15 07:43:42;;;;;;;5.72;1.17;;;;;;;0.69;100.00;98687.50;7324951;19;20484;-37
2024/01/15 07:46:15;;;;;;;15.88;3.67;;;;;;;0.70;100.00;98690.88;7351724;19;20208;-38
2024/01/15 07:48:44;;;;;;;40.40;8.63;;;;;;;0.67;100.00;98697.56;7328091;19;20190;-39
2024/01/15 07:51:14;;;;;;;8.55;2.00;;;;;;;0.67;100.00;98687.41;7350049;19;21373;-37
2024/01/15 07:53:47;;;;;;;7.32;1.75;;;;;;;0.68;100.00;98693.38;7328527;19;20224;-40
2024/01/15 07:56:16;;;;;;;18.17;2.35;;;;;;;0.63;100.00;98700.78;7350877;19;20202;-38
2024/01/15 07:58:46;;;;;;;15.02;4.53;;;;;;;0.63;100.00;98692.28;7327561;19;20229;-40
2024/01/15 08:01:15;;;;;;;6.97;1.63;;;;;;;0.62;100.00;98693.94;7350379;19;20198;-37
2024/01/15 08:03:45;;;;;;;5.00;0.70;;;;;;;0.65;100.00;98693.22;7328951;19;20206;-39
2024/01/15 08:06:12;;;;;;;5.13;1.00;;;;;;;0.69;100.00;98699.31;7350208;19;20208;-39
2024/01/15 08:08:42;;;;;;;6.07;1.53;;;;;;;0.66;100.00;98698.38;7326136;19;20201;-38
2024/01/15 08:11:14;;;;;;;11.07;3.08;;;;;;;0.63;100.00;98705.84;7350202;19;20418;-38
2024/01/15 08:13:44;;;;;;;5.50;1.10;;;;;;;0.63;100.00;98703.31;7327727;19;20201;-38
2024/01/15 08:16:14;;;;;;;28.60;5.28;;;;;;;0.74;100.00;98705.47;7350047;19;20277;-38
2024/01/15 08:18:44;;;;;;;8.67;1.43;;;;;;;0.67;100.00;98705.19;7326954;19;20198;-38
2024/01/15 08:21:14;;;;;;;2.85;1.08;;;;;;;0.73;100.00;98716.44;7350080;19;20419;-38
2024/01/15 08:23:43;;;;;;;3.63;0.95;;;;;;;0.72;100.00;98717.25;7327369;19;20202;-38
2024/01/15 08:26:15;;;;;;;5.63;1.60;;;;;;;0.67;100.00;98717.88;7349277;19;20196;-39
2024/01/15 08:28:45;;;;;;;5.47;1.20;;;;;;;0.65;100.00;98716.94;7325418;19;20502;-39
2024/01/15 08:31:15;;;;;;;8.60;1.55;;;;;;;0.65;100.00;98714.41;7347968;19;20674;-38
2024/01/15 08:33:45;;;;;;;4.72;1.45;;;;;;;0.63;100.00;98715.13;7327177;19;20206;-37
2024/01/15 08:36:15;;;;;;;6.10;1.67;;;;;;;0.69;100.00;98719.63;7350364;19;20829;-38
2024/01/15 08:38:45;;;;;;;16.03;4.30;;;;;;;0.71;100.00;98720.59;7324427;19;20190;-38
2024/01/15 08:41:17;;;;;;;22.27;5.03;;;;;;;0.74;100.00;98723.25;7349730;19;20411;-38
2024/01/15 08:43:47;;;;;;;38.77;10.83;;;;;;;0.74;100.00;98723.25;7327782;19;20538;-40
2024/01/15 08:46:17;;;;;;;19.92;5.63;;;;;;;0.76;100.00;98735.22;7348354;19;20407;-39
2024/01/15 08:48:46;;;;;;;13.00;2.83;;;;;;;0.72;100.00;98735.00;7327586;19;20312;-39
2024/01/15 08:51:16;;;;;;;19.48;4.80;;;;;;;0.74;100.00;98735.94;7348727;19;20202;-38
2024/01/15 08:53:45;;;;;;;10.03;1.67;;;;;;;0.70;100.00;98741.66;7326250;19;20206;-39
2024/01/15 08:56:18;;;;;;;7.80;3.47;;;;;;;0.63;100.00;98754.09;7348310;19;20969;-40
2024/01/15 08:58:48;;;;;;;9.33;1.37;;;;;;;0.42;100.00;98758.06;7325040;19;20789;-39
2024/01/15 09:01:19;;;;;;;20.02;5.95;;;;;;;0.29;100.00;98760.00;7342670;19;20441;-38
2024/01/15 09:03:48;;;;;;;19.55;2.97;;;;;;;0.19;100.00;98773.88;7325766;19;20205;-38
2024/01/15 09:06:18;;;;;;;8.93;1.40;;;;;;;0.05;100.00;98797.66;7347364;19;20198;-37
2024/01/15 09:08:48;;;;;;;8.82;2.08;;;;;;;-0.05;100.00;98811.53;7323923;19;20190;-39
2024/01/15 09:11:20;;;;;;;7.70;2.30;;;;;;;-0.17;100.00;98822.75;7348653;19;20222;-38
2024/01/15 09:13:50;;;;;;;19.83;3.67;;;;;;;-0.28;100.00;98846.63;7325973;19;20206;-38
2024/01/15 09:16:19;;;;;;;8.52;1.75;;;;;;;-0.25;100.00;98872.16;7347734;19;20198;-38
2024/01/15 09:18:49;;;;;;;20.23;5.45;;;;;;;-0.21;100.00;98924.75;7325543;19;20190;-37
2024/01/15 09:21:19;;;;;;;4.93;1.52;;;;;;;-0.20;100.00;99000.03;7348276;19;20595;-38
2024/01/15 09:23:49;;;;;;;26.95;8.55;;;;;;;-0.16;100.00;99067.88;7325379;19;20205;-38
2024/01/15 09:26:21;;;;;;;11.18;2.35;;;;;;;-0.19;100.00;99130.22;7345941;19;20203;-37
2024/01/15 09:28:51;;;;;;;5.07;1.73;;;;;;;-0.02;100.00;99192.06;7320525;19;20247;-39
2024/01/15 09:31:21;;;;;;;12.05;3.00;;;;;;;-0.08;100.00;99220.47;7344918;19;20198;-37
2024/01/15 09:33:55;;;;;;;5.90;1.83;;;;;;;-0.12;100.00;99251.50;7323292;19;20206;-38
2024/01/15 09:36:25;;;;;;;35.15;10.63;;;;;;;-0.05;100.00;99275.56;7347427;19;20189;-38
2024/01/15 09:38:55;;;;;;;25.17;4.25;;;;;;;-0.08;100.00;99298.19;7325342;19;20194;-38
2024/01/15 09:41:28;;;;;;;8.88;1.40;;;;;;;-0.15;100.00;99315.56;7347189;19;20190;-38
2024/01/15 09:43:57;;;;;;;6.32;1.73;;;;;;;-0.19;100.00;99328.84;7327406;19;20568;-40
2024/01/15 09:46:27;;;;;;;23.23;6.80;;;;;;;-0.04;100.00;99355.94;7347769;19;20194;-39
2024/01/15 09:48:56;;;;;;;10.57;2.13;;;;;;;-0.17;100.00;99367.84;7323296;19;20971;-38
2024/01/15 09:51:26;;;;;;;17.20;3.88;;;;;;;-0.24;100.00;99382.56;7346943;19;20261;-40
2024/01/15 09:53:57;;;;;;;14.35;4.47;;;;;;;-0.19;100.00;99404.94;7324943;19;20257;-39
2024/01/15 09:56:30;;;;;;;2.85;1.10;;;;;;;-0.22;100.00;99408.91;7347123;19;20229;-39
2024/01/15 09:58:59;;;;;;;8.48;1.25;;;;;;;-0.31;100.00;99415.16;7325375;19;20206;-38
2024/01/15 10:01:29;;;;;;;18.10;4.55;;;;;;;-0.28;100.00;99433.09;7347300;19;20201;-40
2024/01/15 10:03:59;;;;;;;4.90;1.60;;;;;;;-0.30;100.00;99436.31;7325769;19;20206;-39
2024/01/15 10:06:30;;;;;;;37.05;9.45;;;;;;;-0.21;100.00;99421.69;7347162;19;20221;-38
2024/01/15 10:09:00;;;;;;;4.80;1.98;;;;;;;-0.18;100.00;99426.06;7323198;19;20675;-39
2024/01/15 10:11:33;;;;;;;23.30;6.82;;;;;;;-0.17;100.00;99433.78;7345934;19;20202;-38
2024/01/15 10:14:02;;;;;;;20.58;4.38;;;;;;;-0.25;100.00;99437.50;7324813;19;20202;-38
2024/01/15 10:16:32;;;;;;;26.45;2.22;;;;;;;-0.22;100.00;99425.00;7346663;19;20630;-39
2024/01/15 10:19:02;;;;;;;10.73;1.98;;;;;;;-0.24;100.00;99429.09;7323002;19;20678;-38
2024/01/15 10:21:34;;;;;;;10.63;1.38;;;;;;;-0.19;100.00;99424.31;7339247;19;20190;-39
2024/01/15 10:24:05;;;;;;;17.58;1.55;;;;;;;-0.20;100.00;99425.97;7320383;19;20206;-37
2024/01/15 10:26:37;;;;;;;14.60;2.92;;;;;;;-0.16;100.00;99419.44;7345751;19;20198;-38
2024/01/15 10:29:07;;;;;;;11.98;2.60;;;;;;;-0.08;100.00;99422.44;7324996;19;20198;-38
2024/01/15 10:31:36;;;;;;;6.15;1.42;;;;;;;-0.17;100.00;99422.75;7346693;19;20198;-39
2024/01/15 10:34:15;;;;;;;15.25;1.55;;;;;;;-0.16;100.00;99425.38;7324128;19;20209;-38
2024/01/15 10:36:52;;;;;;;7.30;1.40;;;;;;;-0.17;100.00;99423.63;7324218;19;20853;-38
2024/01/15 10:39:22;;;;;;;6.97;2.30;;;;;;;-0.10;100.00;99422.34;7345231;19;20222;-39
2024/01/15 10:41:54;;;;;;;9.93;1.30;;;;;;;-0.19;100.00;99417.59;7323037;19;20194;-37
2024/01/15 10:44:24;;;;;;;15.50;2.20;;;;;;;-0.15;100.00;99418.66;7344851;19;20219;-37
2024/01/15 10:46:54;;;;;;;4.85;1.33;;;;;;;-0.17;100.00;99423.63;7324361;19;20965;-38
2024/01/15 10:49:25;;;;;;;7.50;2.25;;;;;;;-0.08;100.00;99422.44;7344920;19;20198;-38
2024/01/15 10:52:01;;;;;;;5.43;1.70;;;;;;;0.03;100.00;99423.13;7323929;19;20223;-38
2024/01/15 10:54:32;;;;;;;8.88;2.17;;;;;;;-0.01;100.00;99415.34;7345052;19;20473;-37
2024/01/15 10:57:05;;;;;;;4.15;1.00;;;;;;;-0.07;100.00;99417.50;7324439;19;20190;-38
2024/01/15 10:59:35;;;;;;;12.07;2.88;;;;;;;-0.09;100.00;99415.63;7345733;19;20194;-36
2024/01/15 11:02:05;;;;;;;7.63;1.52;;;;;;;-0.07;100.00;99404.81;7330759;19;20198;-37
2024/01/15 11:04:35;;;;;;;1.70;0.88;;;;;;;0.02;100.00;99399.44;7352041;19;20202;-38
2024/01/15 11:07:05;;;;;;;7.75;1.20;;;;;;;0.04;100.00;99397.84;7330931;19;20190;-38
2024/01/15 11:09:36;;;;;;;16.02;4.15;;;;;;;0.09;100.00;99400.66;7350967;19;20205;-37
2024/01/15 11:12:13;;;;;;;13.70;3.93;;;;;;;0.23;100.00;99399.00;7331690;19;20198;-38
2024/01/15 11:14:44;;;;;;;8.30;1.67;;;;;;;0.18;100.00;99392.75;7330048;19;20430;-38
2024/01/15 11:17:14;;;;;;;55.67;16.05;;;;;;;0.27;100.00;99385.72;7352239;19;20198;-39
2024/01/15 11:19:47;;;;;;;8.90;1.80;;;;;;;0.24;100.00;99380.44;7330067;19;20265;-38
2024/01/15 11:22:48;;;;;;;11.27;2.28;;;;;;;0.25;100.00;99372.03;7351541;19;20399;-38
2024/01/15 11:25:18;;;;;;;7.40;2.23;;;;;;;0.32;100.00;99374.19;7328487;19;20729;-38
2024/01/15 11:27:53;;;;;;;17.57;5.87;;;;;;;0.48;100.00;99365.84;7330057;19;20453;-38
2024/01/15 11:30:27;;;;;;;34.00;10.60;;;;;;;0.59;100.00;99352.91;7345173;19;20422;-37
2024/01/15 11:32:57;;;;;;;9.60;2.23;;;;;;;0.53;100.00;99349.19;7330624;19;20401;-38
2024/01/15 11:35:53;;;;;;;21.47;5.17;;;;;;;0.58;100.00;99330.84;7352362;19;20420;-38
2024/01/15 11:38:31;;;;;;;19.43;4.73;;;;;;;0.65;100.00;99305.03;7330815;19;20436;-37
2024/01/15 11:41:02;;;;;;;16.80;3.50;;;;;;;0.60;100.00;99291.19;7329754;19;20391;-38